sensor_id;sensor_type;location;lat;lon;timestamp;P1;P2;P0
74430;PMS7003;62863;52.062;23.764;2023-08-07T00:00:45;1.2;1.2;0.8
74430;PMS7003;62863;52.062;23.764;2023-08-07T00:06:01;1;0.6;0.6
74430;PMS7003;62863;52.062;23.764;2023-08-07T00:10:37;1.8;1.8;1
74430;PMS7003;62863;52.062;23.764;2023-08-07T00:15:37;1.3;1.3;1
74430;PMS7003;62863;52.062;23.764;2023-08-07T00:20:29;2;1.8;1.2
74430;PMS7003;62863;52.062;23.764;2023-08-07T00:25:21;1.8;1.8;1.2
74430;PMS7003;62863;52.062;23.764;2023-08-07T00:30:29;1;1;1
74430;PMS7003;62863;52.062;23.764;2023-08-07T00:35:21;1.2;0.8;0.6
74430;PMS7003;62863;52.062;23.764;2023-08-07T00:40:51;0.6;0.6;0.4
74430;PMS7003;62863;52.062;23.764;2023-08-07T00:45:46;1.4;0.8;0.8
74430;PMS7003;62863;52.062;23.764;2023-08-07T00:50:45;1;0.8;0.6
74430;PMS7003;62863;52.062;23.764;2023-08-07T00:55:27;1.6;1;0.6
74430;PMS7003;62863;52.062;23.764;2023-08-07T01:00:35;1.6;1.2;1
74430;PMS7003;62863;52.062;23.764;2023-08-07T01:05:27;1.8;1.4;1
74430;PMS7003;62863;52.062;23.764;2023-08-07T01:10:51;1.6;1.4;1
74430;PMS7003;62863;52.062;23.764;2023-08-07T01:15:37;2.3;1.8;1.3
74430;PMS7003;62863;52.062;23.764;2023-08-07T01:20:45;2;1.2;1
74430;PMS7003;62863;52.062;23.764;2023-08-07T01:26:01;1.4;1.4;1.4
74430;PMS7003;62863;52.062;23.764;2023-08-07T01:30:53;1.6;1.6;1.2
74430;PMS7003;62863;52.062;23.764;2023-08-07T01:35:29;2;1.8;1
74430;PMS7003;62863;52.062;23.764;2023-08-07T01:40:51;1.8;1.4;1.4
74430;PMS7003;62863;52.062;23.764;2023-08-07T01:46:01;2;1.4;1.2
74430;PMS7003;62863;52.062;23.764;2023-08-07T01:50:38;2;1.8;1.2
74430;PMS7003;62863;52.062;23.764;2023-08-07T01:55:51;2;2;1.2
74430;PMS7003;62863;52.062;23.764;2023-08-07T02:00:59;2.4;2.4;1.4
74430;PMS7003;62863;52.062;23.764;2023-08-07T02:05:21;1.2;1;0.8
74430;PMS7003;62863;52.062;23.764;2023-08-07T02:10:21;1.8;1;0.8
74430;PMS7003;62863;52.062;23.764;2023-08-07T02:15:41;2.2;1.4;0.8
74430;PMS7003;62863;52.062;23.764;2023-08-07T02:20:45;1.8;1.8;1.3
74430;PMS7003;62863;52.062;23.764;2023-08-07T02:25:37;1.6;1.6;1.2
74430;PMS7003;62863;52.062;23.764;2023-08-07T02:30:51;1.8;1.2;0.8
74430;PMS7003;62863;52.062;23.764;2023-08-07T02:35:27;1.4;1.2;0.8
74430;PMS7003;62863;52.062;23.764;2023-08-07T02:40:21;2.6;1.4;1
74430;PMS7003;62863;52.062;23.764;2023-08-07T02:46:01;2;1.4;1.2
74430;PMS7003;62863;52.062;23.764;2023-08-07T02:50:21;2.4;1.8;1.2
74430;PMS7003;62863;52.062;23.764;2023-08-07T02:55:35;1.8;0.8;0.8
74430;PMS7003;62863;52.062;23.764;2023-08-07T03:00:51;1.2;1.2;1.2
74430;PMS7003;62863;52.062;23.764;2023-08-07T03:05:55;1.6;1.2;1.2
74430;PMS7003;62863;52.062;23.764;2023-08-07T03:10:52;1.2;0.8;0.8
74430;PMS7003;62863;52.062;23.764;2023-08-07T03:15:35;1.2;0.8;0.4
74430;PMS7003;62863;52.062;23.764;2023-08-07T03:20:51;1.3;1;0.5
74430;PMS7003;62863;52.062;23.764;2023-08-07T03:25:35;1.8;1.2;0.6
74430;PMS7003;62863;52.062;23.764;2023-08-07T03:30:22;1.4;0.6;0.6
74430;PMS7003;62863;52.062;23.764;2023-08-07T03:35:21;1;1;0.6
74430;PMS7003;62863;52.062;23.764;2023-08-07T03:40:59;1.2;0.8;0.4
74430;PMS7003;62863;52.062;23.764;2023-08-07T03:45:21;1;0.4;0
74430;PMS7003;62863;52.062;23.764;2023-08-07T03:50:31;0.2;0.2;0.2
74430;PMS7003;62863;52.062;23.764;2023-08-07T03:56:02;0.8;0.6;0.2
74430;PMS7003;62863;52.062;23.764;2023-08-07T04:00:51;0.2;0.2;0.2
74430;PMS7003;62863;52.062;23.764;2023-08-07T04:05:35;1.2;0.2;0
74430;PMS7003;62863;52.062;23.764;2023-08-07T04:10:21;0.4;0.4;0
74430;PMS7003;62863;52.062;23.764;2023-08-07T04:15:43;0.8;0.8;0.2
74430;PMS7003;62863;52.062;23.764;2023-08-07T04:20:35;1.3;0.5;0.3
74430;PMS7003;62863;52.062;23.764;2023-08-07T04:25:28;0.8;0.2;0
74430;PMS7003;62863;52.062;23.764;2023-08-07T04:30:59;0.4;0.2;0
74430;PMS7003;62863;52.062;23.764;2023-08-07T04:35:46;0;0;0
74430;PMS7003;62863;52.062;23.764;2023-08-07T04:40:35;0;0;0
74430;PMS7003;62863;52.062;23.764;2023-08-07T04:46:01;0.8;0.2;0
74430;PMS7003;62863;52.062;23.764;2023-08-07T04:50:34;0.4;0.4;0.2
74430;PMS7003;62863;52.062;23.764;2023-08-07T04:55:21;1.2;1;1
74430;PMS7003;62863;52.062;23.764;2023-08-07T05:00:44;1;0.8;0.6
74430;PMS7003;62863;52.062;23.764;2023-08-07T05:05:57;0.2;0;0
74430;PMS7003;62863;52.062;23.764;2023-08-07T05:10:39;0.4;0.4;0
74430;PMS7003;62863;52.062;23.764;2023-08-07T05:15:46;0.6;0.2;0
74430;PMS7003;62863;52.062;23.764;2023-08-07T05:20:21;0;0;0
74430;PMS7003;62863;52.062;23.764;2023-08-07T05:25:21;0.4;0;0
74430;PMS7003;62863;52.062;23.764;2023-08-07T05:30:32;0.2;0;0
74430;PMS7003;62863;52.062;23.764;2023-08-07T05:36:02;0;0;0
74430;PMS7003;62863;52.062;23.764;2023-08-07T05:41:02;0.4;0.4;0.2
74430;PMS7003;62863;52.062;23.764;2023-08-07T05:45:56;0.2;0.2;0.2
74430;PMS7003;62863;52.062;23.764;2023-08-07T05:51:00;0.4;0.4;0
74430;PMS7003;62863;52.062;23.764;2023-08-07T05:55:42;0.4;0.2;0.2
74430;PMS7003;62863;52.062;23.764;2023-08-07T06:00:22;0;0;0
74430;PMS7003;62863;52.062;23.764;2023-08-07T06:06:00;0.6;0.4;0.2
74430;PMS7003;62863;52.062;23.764;2023-08-07T06:11:02;0.2;0.2;0.2
74430;PMS7003;62863;52.062;23.764;2023-08-07T06:15:52;1.8;1.8;1.2
74430;PMS7003;62863;52.062;23.764;2023-08-07T06:20:50;4.5;3.5;3
74430;PMS7003;62863;52.062;23.764;2023-08-07T06:26:00;1.2;1;0.6
74430;PMS7003;62863;52.062;23.764;2023-08-07T06:30:28;0.4;0.4;0.2
74430;PMS7003;62863;52.062;23.764;2023-08-07T06:35:22;1;1;0.8
74430;PMS7003;62863;52.062;23.764;2023-08-07T06:40:50;0.4;0.4;0.4
74430;PMS7003;62863;52.062;23.764;2023-08-07T06:46:00;1.2;1.2;0.8
74430;PMS7003;62863;52.062;23.764;2023-08-07T06:51:00;0.4;0.4;0
74430;PMS7003;62863;52.062;23.764;2023-08-07T06:55:50;0;0;0
74430;PMS7003;62863;52.062;23.764;2023-08-07T07:00:44;0.2;0.2;0
74430;PMS7003;62863;52.062;23.764;2023-08-07T07:05:22;0.8;0.4;0.4
74430;PMS7003;62863;52.062;23.764;2023-08-07T07:11:02;0.4;0;0
74430;PMS7003;62863;52.062;23.764;2023-08-07T07:15:42;0.2;0.2;0.2
74430;PMS7003;62863;52.062;23.764;2023-08-07T07:20:22;0.2;0.2;0.2
74430;PMS7003;62863;52.062;23.764;2023-08-07T07:25:50;0.3;0.3;0.3
74430;PMS7003;62863;52.062;23.764;2023-08-07T07:31:02;3.4;3;2.6
74430;PMS7003;62863;52.062;23.764;2023-08-07T07:35:48;1.6;1.6;1.2
74430;PMS7003;62863;52.062;23.764;2023-08-07T07:40:28;1.2;1.2;1
74430;PMS7003;62863;52.062;23.764;2023-08-07T07:46:00;0.8;0.8;0.6
74430;PMS7003;62863;52.062;23.764;2023-08-07T07:50:42;1;1;1
74430;PMS7003;62863;52.062;23.764;2023-08-07T07:55:22;0.6;0.4;0.2
74430;PMS7003;62863;52.062;23.764;2023-08-07T08:00:36;0.4;0.4;0.4
74430;PMS7003;62863;52.062;23.764;2023-08-07T08:06:02;2.6;1.6;0.8
74430;PMS7003;62863;52.062;23.764;2023-08-07T08:10:40;1.2;1.2;1
74430;PMS7003;62863;52.062;23.764;2023-08-07T08:15:46;1;1;0.8
74430;PMS7003;62863;52.062;23.764;2023-08-07T08:20:54;0.8;0.8;0.6
74430;PMS7003;62863;52.062;23.764;2023-08-07T08:25:50;1.5;1.5;1.5
74430;PMS7003;62863;52.062;23.764;2023-08-07T08:30:22;2;2;1.6
74430;PMS7003;62863;52.062;23.764;2023-08-07T08:35:36;1.6;1;1
74430;PMS7003;62863;52.062;23.764;2023-08-07T08:40:46;1.6;1.2;1
74430;PMS7003;62863;52.062;23.764;2023-08-07T08:45:22;2.4;1.4;1.4
74430;PMS7003;62863;52.062;23.764;2023-08-07T08:50:50;1.6;1.2;1.2
74430;PMS7003;62863;52.062;23.764;2023-08-07T08:55:58;1;0.8;0.4
74430;PMS7003;62863;52.062;23.764;2023-08-07T09:00:24;0.2;0.2;0.2
74430;PMS7003;62863;52.062;23.764;2023-08-07T09:05:22;2.2;1;0.6
74430;PMS7003;62863;52.062;23.764;2023-08-07T09:10:36;0.8;0.8;0.8
74430;PMS7003;62863;52.062;23.764;2023-08-07T09:15:28;1.2;0.4;0.4
74430;PMS7003;62863;52.062;23.764;2023-08-07T09:20:28;0.6;0.6;0.4
74430;PMS7003;62863;52.062;23.764;2023-08-07T09:25:58;1.5;1;1
74430;PMS7003;62863;52.062;23.764;2023-08-07T09:30:25;0.8;0.6;0.6
74430;PMS7003;62863;52.062;23.764;2023-08-07T09:35:46;1.8;1.2;0.8
74430;PMS7003;62863;52.062;23.764;2023-08-07T09:40:58;1.6;1.2;0.8
74430;PMS7003;62863;52.062;23.764;2023-08-07T09:45:30;1.6;1.6;1.6
74430;PMS7003;62863;52.062;23.764;2023-08-07T09:50:31;2.2;1.8;1.2
74430;PMS7003;62863;52.062;23.764;2023-08-07T09:55:51;2;1.6;1.2
74430;PMS7003;62863;52.062;23.764;2023-08-07T10:01:00;2.2;1.8;1.6
74430;PMS7003;62863;52.062;23.764;2023-08-07T10:06:00;3.2;2.8;2
74430;PMS7003;62863;52.062;23.764;2023-08-07T10:10:58;1.4;1.4;1.4
74430;PMS7003;62863;52.062;23.764;2023-08-07T10:15:58;2.6;2.4;2
74430;PMS7003;62863;52.062;23.764;2023-08-07T10:20:22;2.2;2;2
74430;PMS7003;62863;52.062;23.764;2023-08-07T10:25:28;2;2;1.8
74430;PMS7003;62863;52.062;23.764;2023-08-07T10:30:50;2.8;2.6;2
74430;PMS7003;62863;52.062;23.764;2023-08-07T10:35:58;2.8;2.6;1.8
74430;PMS7003;62863;52.062;23.764;2023-08-07T10:41:06;2;1.8;1
74430;PMS7003;62863;52.062;23.764;2023-08-07T10:45:44;1.8;1.2;0.8
74430;PMS7003;62863;52.062;23.764;2023-08-07T10:50:56;1;0.8;0.6
74430;PMS7003;62863;52.062;23.764;2023-08-07T10:55:45;1.6;0.8;0.6
74430;PMS7003;62863;52.062;23.764;2023-08-07T11:00:34;1.4;1;0.6
74430;PMS7003;62863;52.062;23.764;2023-08-07T11:05:40;0.2;0.2;0.2
74430;PMS7003;62863;52.062;23.764;2023-08-07T11:10:59;0.2;0.2;0
74430;PMS7003;62863;52.062;23.764;2023-08-07T11:15:50;0.2;0;0
74430;PMS7003;62863;52.062;23.764;2023-08-07T11:20:50;1;0.8;0.4
74430;PMS7003;62863;52.062;23.764;2023-08-07T11:25:28;1.3;0.3;0.3
74430;PMS7003;62863;52.062;23.764;2023-08-07T11:30:22;0.4;0.2;0
74430;PMS7003;62863;52.062;23.764;2023-08-07T11:36:00;0.2;0.2;0
74430;PMS7003;62863;52.062;23.764;2023-08-07T11:40:34;0.6;0.2;0
74430;PMS7003;62863;52.062;23.764;2023-08-07T11:45:44;0.6;0.4;0
74430;PMS7003;62863;52.062;23.764;2023-08-07T11:50:48;0.8;0;0
74430;PMS7003;62863;52.062;23.764;2023-08-07T11:56:00;0.6;0;0
74430;PMS7003;62863;52.062;23.764;2023-08-07T12:00:24;0.4;0.4;0
74430;PMS7003;62863;52.062;23.764;2023-08-07T12:05:22;0.2;0;0
74430;PMS7003;62863;52.062;23.764;2023-08-07T12:10:50;1.4;0.8;0.6
74430;PMS7003;62863;52.062;23.764;2023-08-07T12:15:41;0.8;0.8;0.6
74430;PMS7003;62863;52.062;23.764;2023-08-07T12:20:36;1.4;1.2;1
74430;PMS7003;62863;52.062;23.764;2023-08-07T12:25:46;1.2;0.8;0.6
74430;PMS7003;62863;52.062;23.764;2023-08-07T12:30:58;1.3;1;0.8
74430;PMS7003;62863;52.062;23.764;2023-08-07T12:35:32;1.6;1.4;1.2
74430;PMS7003;62863;52.062;23.764;2023-08-07T12:40:26;2;1.8;1
74430;PMS7003;62863;52.062;23.764;2023-08-07T12:45:56;2.6;2.4;1.8
74430;PMS7003;62863;52.062;23.764;2023-08-07T12:50:46;0.8;0.8;0.2
74430;PMS7003;62863;52.062;23.764;2023-08-07T12:55:34;1;0.2;0.2
74430;PMS7003;62863;52.062;23.764;2023-08-07T13:00:32;0.8;0.6;0
74430;PMS7003;62863;52.062;23.764;2023-08-07T13:05:45;0.2;0.2;0
74430;PMS7003;62863;52.062;23.764;2023-08-07T13:10:26;1.2;0.6;0.4
74430;PMS7003;62863;52.062;23.764;2023-08-07T13:15:36;2;1.6;1.2
74430;PMS7003;62863;52.062;23.764;2023-08-07T13:20:48;1;1;0.8
74430;PMS7003;62863;52.062;23.764;2023-08-07T13:25:46;2;0;0
74430;PMS7003;62863;52.062;23.764;2023-08-07T13:30:46;0.8;0.8;0.3
74430;PMS7003;62863;52.062;23.764;2023-08-07T13:35:26;0.2;0;0
74430;PMS7003;62863;52.062;23.764;2023-08-07T13:40:35;0.6;0.2;0.2
74430;PMS7003;62863;52.062;23.764;2023-08-07T13:45:26;1.2;0.4;0.4
74430;PMS7003;62863;52.062;23.764;2023-08-07T13:50:56;0;0;0
74430;PMS7003;62863;52.062;23.764;2023-08-07T13:55:22;0.4;0.2;0.2
74430;PMS7003;62863;52.062;23.764;2023-08-07T14:00:58;0;0;0
74430;PMS7003;62863;52.062;23.764;2023-08-07T14:05:58;0.4;0;0
74430;PMS7003;62863;52.062;23.764;2023-08-07T14:10:46;0.2;0.2;0
74430;PMS7003;62863;52.062;23.764;2023-08-07T14:15:22;1;0.4;0
74430;PMS7003;62863;52.062;23.764;2023-08-07T14:20:46;1;0.8;0.4
74430;PMS7003;62863;52.062;23.764;2023-08-07T14:25:56;0.6;0.6;0.6
74430;PMS7003;62863;52.062;23.764;2023-08-07T14:30:56;1.3;1;0.8
74430;PMS7003;62863;52.062;23.764;2023-08-07T14:35:58;1.4;0.8;0.8
74430;PMS7003;62863;52.062;23.764;2023-08-07T14:40:56;2;1.4;0.8
74430;PMS7003;62863;52.062;23.764;2023-08-07T14:45:22;0.4;0.4;0.2
74430;PMS7003;62863;52.062;23.764;2023-08-07T14:50:32;0.4;0;0
74430;PMS7003;62863;52.062;23.764;2023-08-07T14:55:46;0.4;0.2;0.2
74430;PMS7003;62863;52.062;23.764;2023-08-07T15:00:56;0.4;0.4;0.4
74430;PMS7003;62863;52.062;23.764;2023-08-07T15:05:32;1.2;0.4;0.4
74430;PMS7003;62863;52.062;23.764;2023-08-07T15:10:46;0.8;0.8;0.6
74430;PMS7003;62863;52.062;23.764;2023-08-07T15:15:58;1.8;1.4;1
74430;PMS7003;62863;52.062;23.764;2023-08-07T15:20:22;1.6;1.6;0.8
74430;PMS7003;62863;52.062;23.764;2023-08-07T15:25:32;0.4;0;0
74430;PMS7003;62863;52.062;23.764;2023-08-07T15:30:36;0.8;0.8;0.5
74430;PMS7003;62863;52.062;23.764;2023-08-07T15:35:54;1;0.8;0.6
74430;PMS7003;62863;52.062;23.764;2023-08-07T15:40:38;0.6;0.4;0.2
74430;PMS7003;62863;52.062;23.764;2023-08-07T15:45:49;0.6;0.6;0.6
74430;PMS7003;62863;52.062;23.764;2023-08-07T15:50:34;0.8;0.8;0.8
74430;PMS7003;62863;52.062;23.764;2023-08-07T15:55:30;3.2;2.2;1.4
74430;PMS7003;62863;52.062;23.764;2023-08-07T16:00:58;2.6;2;1.2
74430;PMS7003;62863;52.062;23.764;2023-08-07T16:05:28;3.4;2.6;2
74430;PMS7003;62863;52.062;23.764;2023-08-07T16:10:32;2.2;1.6;0.8
74430;PMS7003;62863;52.062;23.764;2023-08-07T16:15:46;1.6;1.4;1.2
74430;PMS7003;62863;52.062;23.764;2023-08-07T16:20:58;1.8;1.8;1
74430;PMS7003;62863;52.062;23.764;2023-08-07T16:25:32;1.4;1.2;1
74430;PMS7003;62863;52.062;23.764;2023-08-07T16:30:34;0.8;0.8;0.8
74430;PMS7003;62863;52.062;23.764;2023-08-07T16:35:46;1.2;1.2;1
74430;PMS7003;62863;52.062;23.764;2023-08-07T16:40:22;1.8;1.2;0.8
74430;PMS7003;62863;52.062;23.764;2023-08-07T16:45:34;1.6;0.8;0.8
74430;PMS7003;62863;52.062;23.764;2023-08-07T16:50:22;1.6;1.4;1.2
74430;PMS7003;62863;52.062;23.764;2023-08-07T16:55:58;2;1.6;1
74430;PMS7003;62863;52.062;23.764;2023-08-07T17:00:22;1.6;1.6;1.4
74430;PMS7003;62863;52.062;23.764;2023-08-07T17:05:36;2.8;2.8;2.4
74430;PMS7003;62863;52.062;23.764;2023-08-07T17:11:00;1.8;1.6;1.2
74430;PMS7003;62863;52.062;23.764;2023-08-07T17:15:46;3.2;2.4;1.6
74430;PMS7003;62863;52.062;23.764;2023-08-07T17:20:22;2.4;1.6;1.4
74430;PMS7003;62863;52.062;23.764;2023-08-07T17:25:36;2;1.6;1
74430;PMS7003;62863;52.062;23.764;2023-08-07T17:30:22;2.4;2;1.6
74430;PMS7003;62863;52.062;23.764;2023-08-07T17:35:22;1.3;1.3;1
74430;PMS7003;62863;52.062;23.764;2023-08-07T17:40:28;1.8;1.2;1
74430;PMS7003;62863;52.062;23.764;2023-08-07T17:45:24;3.8;2.4;1.6
74430;PMS7003;62863;52.062;23.764;2023-08-07T17:50:44;2.2;2.2;1.6
74430;PMS7003;62863;52.062;23.764;2023-08-07T17:55:46;2.6;2;1.8
74430;PMS7003;62863;52.062;23.764;2023-08-07T18:00:30;2;1.8;1.8
74430;PMS7003;62863;52.062;23.764;2023-08-07T18:05:22;3.2;2.8;2
74430;PMS7003;62863;52.062;23.764;2023-08-07T18:10:28;3.2;2.2;1.8
74430;PMS7003;62863;52.062;23.764;2023-08-07T18:16:00;2.2;2;1.6
74430;PMS7003;62863;52.062;23.764;2023-08-07T18:20:42;1.8;1.6;1.4
74430;PMS7003;62863;52.062;23.764;2023-08-07T18:25:46;1.4;1;1
74430;PMS7003;62863;52.062;23.764;2023-08-07T18:31:00;2.2;1.4;1.4
74430;PMS7003;62863;52.062;23.764;2023-08-07T18:35:44;2.5;1.8;1
74430;PMS7003;62863;52.062;23.764;2023-08-07T18:40:28;2.8;2;1.8
74430;PMS7003;62863;52.062;23.764;2023-08-07T18:45:50;2.8;2.2;1.4
74430;PMS7003;62863;52.062;23.764;2023-08-07T18:50:42;2.8;1.4;1.4
74430;PMS7003;62863;52.062;23.764;2023-08-07T18:56:00;1.8;1.4;1
74430;PMS7003;62863;52.062;23.764;2023-08-07T19:00:46;2;1;0.8
74430;PMS7003;62863;52.062;23.764;2023-08-07T19:06:00;2.6;2.4;2
74430;PMS7003;62863;52.062;23.764;2023-08-07T19:10:28;2.4;2.2;1.4
74430;PMS7003;62863;52.062;23.764;2023-08-07T19:15:28;1.8;1.6;1
74430;PMS7003;62863;52.062;23.764;2023-08-07T19:20:42;1.4;1.2;1
74430;PMS7003;62863;52.062;23.764;2023-08-07T19:26:00;5.8;5;4
74430;PMS7003;62863;52.062;23.764;2023-08-07T19:30:50;5.4;4;3
74430;PMS7003;62863;52.062;23.764;2023-08-07T19:35:34;2.8;1.8;1.3
74430;PMS7003;62863;52.062;23.764;2023-08-07T19:40:56;2.2;2.2;1.6
74430;PMS7003;62863;52.062;23.764;2023-08-07T19:45:36;3.2;2.2;1.6
74430;PMS7003;62863;52.062;23.764;2023-08-07T19:50:28;2.2;1.8;1.4
74430;PMS7003;62863;52.062;23.764;2023-08-07T19:55:40;2.6;2;2
74430;PMS7003;62863;52.062;23.764;2023-08-07T20:01:00;2.6;2.2;1.8
74430;PMS7003;62863;52.062;23.764;2023-08-07T20:05:30;2;1.8;1.6
74430;PMS7003;62863;52.062;23.764;2023-08-07T20:10:50;3.6;2.8;2
74430;PMS7003;62863;52.062;23.764;2023-08-07T20:15:50;2.8;2.4;2
74430;PMS7003;62863;52.062;23.764;2023-08-07T20:20:22;3.4;3.4;2.4
74430;PMS7003;62863;52.062;23.764;2023-08-07T20:26:00;3.2;2.6;2.4
74430;PMS7003;62863;52.062;23.764;2023-08-07T20:30:40;3.4;2.8;2.2
74430;PMS7003;62863;52.062;23.764;2023-08-07T20:35:28;3.8;3.3;2.3
74430;PMS7003;62863;52.062;23.764;2023-08-07T20:40:32;3.2;2.8;1.8
74430;PMS7003;62863;52.062;23.764;2023-08-07T20:46:00;4;3.4;2.4
74430;PMS7003;62863;52.062;23.764;2023-08-07T20:50:50;2.8;2.4;1.8
74430;PMS7003;62863;52.062;23.764;2023-08-07T20:55:30;3.2;2.4;2.4
74430;PMS7003;62863;52.062;23.764;2023-08-07T21:01:00;4.2;3.8;2.8
74430;PMS7003;62863;52.062;23.764;2023-08-07T21:05:50;3.4;3.4;3
74430;PMS7003;62863;52.062;23.764;2023-08-07T21:10:36;3.8;2.8;2.2
74430;PMS7003;62863;52.062;23.764;2023-08-07T21:15:36;3.6;2.8;2.4
74430;PMS7003;62863;52.062;23.764;2023-08-07T21:20:46;2.4;2.4;2
74430;PMS7003;62863;52.062;23.764;2023-08-07T21:25:28;3.6;2.8;1.8
74430;PMS7003;62863;52.062;23.764;2023-08-07T21:30:22;3;2.6;2.2
74430;PMS7003;62863;52.062;23.764;2023-08-07T21:36:00;4.3;3;2
74430;PMS7003;62863;52.062;23.764;2023-08-07T21:40:30;3.4;2.8;2.2
74430;PMS7003;62863;52.062;23.764;2023-08-07T21:45:22;3.4;2.4;2.2
74430;PMS7003;62863;52.062;23.764;2023-08-07T21:50:34;3.6;2.6;2
74430;PMS7003;62863;52.062;23.764;2023-08-07T21:55:22;2.6;2.6;2.2
74430;PMS7003;62863;52.062;23.764;2023-08-07T22:00:22;3;2.6;2.4
74430;PMS7003;62863;52.062;23.764;2023-08-07T22:05:32;3.2;2.8;2.4
74430;PMS7003;62863;52.062;23.764;2023-08-07T22:10:50;4;3;2.8
74430;PMS7003;62863;52.062;23.764;2023-08-07T22:15:46;3.4;3.2;2.6
74430;PMS7003;62863;52.062;23.764;2023-08-07T22:20:46;3;2.6;2.4
74430;PMS7003;62863;52.062;23.764;2023-08-07T22:25:36;4;3;2.4
74430;PMS7003;62863;52.062;23.764;2023-08-07T22:30:28;3.4;2.6;2.4
74430;PMS7003;62863;52.062;23.764;2023-08-07T22:35:22;3.8;3.2;2.6
74430;PMS7003;62863;52.062;23.764;2023-08-07T22:41:00;2.5;2.3;2
74430;PMS7003;62863;52.062;23.764;2023-08-07T22:45:36;3.4;3;2.4
74430;PMS7003;62863;52.062;23.764;2023-08-07T22:50:46;4;3.2;2.8
74430;PMS7003;62863;52.062;23.764;2023-08-07T22:56:00;3;2.8;2.4
74430;PMS7003;62863;52.062;23.764;2023-08-07T23:00:50;4;3.4;3
74430;PMS7003;62863;52.062;23.764;2023-08-07T23:05:28;3.8;3.6;2.6
74430;PMS7003;62863;52.062;23.764;2023-08-07T23:10:50;4.4;3.4;2.4
74430;PMS7003;62863;52.062;23.764;2023-08-07T23:16:00;4.4;3.8;3
74430;PMS7003;62863;52.062;23.764;2023-08-07T23:20:52;5.6;4;3.2
74430;PMS7003;62863;52.062;23.764;2023-08-07T23:26:00;4.2;3.4;3.2
74430;PMS7003;62863;52.062;23.764;2023-08-07T23:31:00;4;3.4;3
74430;PMS7003;62863;52.062;23.764;2023-08-07T23:35:22;5.2;4;3
74430;PMS7003;62863;52.062;23.764;2023-08-07T23:40:28;4;3.5;2.8
74430;PMS7003;62863;52.062;23.764;2023-08-07T23:45:30;3.4;3.4;2.8
74430;PMS7003;62863;52.062;23.764;2023-08-07T23:51:00;3.4;3.4;3.2
74430;PMS7003;62863;52.062;23.764;2023-08-07T23:55:42;3.8;3.6;3.2
